Bom Jardim da Serra, Brazil
Current Conditions -  °F | °C
As of 11:40 PM on Friday 19 Dec 2014 (Local Time) from SBCM Reporting Station
Clear Clear  
Wind Chill: 70°   Ceiling: Unl
Heat Index: 70°   Visibility: 6mi
Dew Point: 68°   Wind: 3mph
Humidity: 94%   Direction: 60°ENE
Pressure: 29.77"   Gusts: NA
Location:  28.34°S, 49.62°W
Report Text: SBCM 200140Z 06003KT CAVOK 21/20 Q1008
Loading
Personal Weather Stations






























Interactive Weather Map New forecast layout! Learn more

10-Day Weather Forecast

Advertisements
Track Severe Weather on mobile